sensor_id;sensor_type;location;lat;lon;timestamp;temperature;humidity
62007;DHT22;47963;53.008;6.754;2023-01-04T00:02:02;8.10;99.90
62007;DHT22;47963;53.008;6.754;2023-01-04T00:04:27;8.10;99.90
62007;DHT22;47963;53.008;6.754;2023-01-04T00:06:53;8.20;99.90
62007;DHT22;47963;53.008;6.754;2023-01-04T00:09:18;8.20;99.90
62007;DHT22;47963;53.008;6.754;2023-01-04T00:11:44;8.10;99.90
62007;DHT22;47963;53.008;6.754;2023-01-04T00:14:10;8.20;99.90
62007;DHT22;47963;53.008;6.754;2023-01-04T00:16:36;8.10;99.90
62007;DHT22;47963;53.008;6.754;2023-01-04T00:19:02;8.20;99.90
62007;DHT22;47963;53.008;6.754;2023-01-04T00:21:29;8.20;99.90
62007;DHT22;47963;53.008;6.754;2023-01-04T00:23:58;8.20;99.90
62007;DHT22;47963;53.008;6.754;2023-01-04T00:26:27;8.20;99.90
62007;DHT22;47963;53.008;6.754;2023-01-04T00:28:56;8.20;99.90
62007;DHT22;47963;53.008;6.754;2023-01-04T00:31:23;8.20;99.90
62007;DHT22;47963;53.008;6.754;2023-01-04T00:33:50;8.20;99.90
62007;DHT22;47963;53.008;6.754;2023-01-04T00:36:17;8.20;99.90
62007;DHT22;47963;53.008;6.754;2023-01-04T00:38:43;8.20;99.90
62007;DHT22;47963;53.008;6.754;2023-01-04T00:41:10;8.30;99.90
62007;DHT22;47963;53.008;6.754;2023-01-04T00:43:36;8.20;99.90
62007;DHT22;47963;53.008;6.754;2023-01-04T00:46:01;8.30;99.90
62007;DHT22;47963;53.008;6.754;2023-01-04T00:48:28;8.20;99.90
62007;DHT22;47963;53.008;6.754;2023-01-04T00:50:54;8.20;99.90
62007;DHT22;47963;53.008;6.754;2023-01-04T00:53:20;8.20;99.90
62007;DHT22;47963;53.008;6.754;2023-01-04T00:55:46;8.10;99.90
62007;DHT22;47963;53.008;6.754;2023-01-04T00:58:12;8.10;99.90
62007;DHT22;47963;53.008;6.754;2023-01-04T01:00:37;8.10;99.90
62007;DHT22;47963;53.008;6.754;2023-01-04T01:03:03;8.00;99.90
62007;DHT22;47963;53.008;6.754;2023-01-04T01:05:31;8.10;99.90
62007;DHT22;47963;53.008;6.754;2023-01-04T01:07:57;8.00;99.90
62007;DHT22;47963;53.008;6.754;2023-01-04T01:10:22;8.00;99.90
62007;DHT22;47963;53.008;6.754;2023-01-04T01:12:48;8.00;99.90
62007;DHT22;47963;53.008;6.754;2023-01-04T01:15:14;8.00;99.90
62007;DHT22;47963;53.008;6.754;2023-01-04T01:17:39;8.00;99.90
62007;DHT22;47963;53.008;6.754;2023-01-04T01:20:05;8.00;99.90
62007;DHT22;47963;53.008;6.754;2023-01-04T01:22:34;8.00;99.90
62007;DHT22;47963;53.008;6.754;2023-01-04T01:25:00;8.00;99.90
62007;DHT22;47963;53.008;6.754;2023-01-04T01:27:25;8.10;99.90
62007;DHT22;47963;53.008;6.754;2023-01-04T01:29:52;8.00;99.90
62007;DHT22;47963;53.008;6.754;2023-01-04T01:32:18;8.10;99.90
62007;DHT22;47963;53.008;6.754;2023-01-04T01:34:43;8.10;99.90
62007;DHT22;47963;53.008;6.754;2023-01-04T01:37:09;8.10;99.90
62007;DHT22;47963;53.008;6.754;2023-01-04T01:39:34;8.10;99.90
62007;DHT22;47963;53.008;6.754;2023-01-04T01:42:00;8.20;99.90
62007;DHT22;47963;53.008;6.754;2023-01-04T01:47:16;8.20;99.90
62007;DHT22;47963;53.008;6.754;2023-01-04T01:49:45;8.10;99.90
62007;DHT22;47963;53.008;6.754;2023-01-04T01:52:20;8.10;99.90
62007;DHT22;47963;53.008;6.754;2023-01-04T01:54:52;8.20;99.90
62007;DHT22;47963;53.008;6.754;2023-01-04T01:57:22;8.10;99.90
62007;DHT22;47963;53.008;6.754;2023-01-04T01:59:50;8.20;99.90
62007;DHT22;47963;53.008;6.754;2023-01-04T02:02:17;8.10;99.90
62007;DHT22;47963;53.008;6.754;2023-01-04T02:04:46;8.20;99.90
62007;DHT22;47963;53.008;6.754;2023-01-04T02:07:15;8.20;99.90
62007;DHT22;47963;53.008;6.754;2023-01-04T02:09:43;8.20;99.90
62007;DHT22;47963;53.008;6.754;2023-01-04T02:12:13;8.20;99.90
62007;DHT22;47963;53.008;6.754;2023-01-04T02:14:40;8.20;99.90
62007;DHT22;47963;53.008;6.754;2023-01-04T02:19:55;8.30;99.90
62007;DHT22;47963;53.008;6.754;2023-01-04T02:22:39;8.20;99.90
62007;DHT22;47963;53.008;6.754;2023-01-04T02:31:23;8.30;99.90
62007;DHT22;47963;53.008;6.754;2023-01-04T02:36:58;8.30;99.90
62007;DHT22;47963;53.008;6.754;2023-01-04T02:42:15;8.30;99.90
62007;DHT22;47963;53.008;6.754;2023-01-04T02:44:49;8.40;99.90
62007;DHT22;47963;53.008;6.754;2023-01-04T02:47:37;8.40;99.90
62007;DHT22;47963;53.008;6.754;2023-01-04T02:50:32;8.40;99.90
62007;DHT22;47963;53.008;6.754;2023-01-04T02:53:12;8.40;99.90
62007;DHT22;47963;53.008;6.754;2023-01-04T03:01:41;8.50;99.90
62007;DHT22;47963;53.008;6.754;2023-01-04T03:07:40;8.60;99.90
62007;DHT22;47963;53.008;6.754;2023-01-04T03:13:10;8.60;99.90
62007;DHT22;47963;53.008;6.754;2023-01-04T03:15:39;8.60;99.90
62007;DHT22;47963;53.008;6.754;2023-01-04T03:18:10;8.60;99.90
62007;DHT22;47963;53.008;6.754;2023-01-04T03:20:39;8.70;99.90
62007;DHT22;47963;53.008;6.754;2023-01-04T03:23:09;8.70;99.90
62007;DHT22;47963;53.008;6.754;2023-01-04T03:26:07;8.60;99.90
62007;DHT22;47963;53.008;6.754;2023-01-04T03:28:53;8.70;99.90
62007;DHT22;47963;53.008;6.754;2023-01-04T03:31:45;8.80;99.90
62007;DHT22;47963;53.008;6.754;2023-01-04T03:34:31;8.80;99.90
62007;DHT22;47963;53.008;6.754;2023-01-04T03:37:21;8.90;99.90
62007;DHT22;47963;53.008;6.754;2023-01-04T03:39:59;8.80;99.90
62007;DHT22;47963;53.008;6.754;2023-01-04T03:46:06;9.00;99.90
62007;DHT22;47963;53.008;6.754;2023-01-04T03:49:03;8.90;99.90
62007;DHT22;47963;53.008;6.754;2023-01-04T03:51:36;9.00;99.90
62007;DHT22;47963;53.008;6.754;2023-01-04T03:54:03;9.10;99.90
62007;DHT22;47963;53.008;6.754;2023-01-04T03:56:31;9.10;99.90
62007;DHT22;47963;53.008;6.754;2023-01-04T03:58:57;9.30;99.90
62007;DHT22;47963;53.008;6.754;2023-01-04T04:01:25;9.30;99.90
62007;DHT22;47963;53.008;6.754;2023-01-04T04:03:51;9.30;99.90
62007;DHT22;47963;53.008;6.754;2023-01-04T04:06:36;9.40;99.90
62007;DHT22;47963;53.008;6.754;2023-01-04T04:09:20;9.40;99.90
62007;DHT22;47963;53.008;6.754;2023-01-04T04:11:46;9.40;99.90
62007;DHT22;47963;53.008;6.754;2023-01-04T04:14:11;9.50;99.90
62007;DHT22;47963;53.008;6.754;2023-01-04T04:16:37;9.50;99.90
62007;DHT22;47963;53.008;6.754;2023-01-04T04:19:03;9.50;99.90
62007;DHT22;47963;53.008;6.754;2023-01-04T04:21:29;9.60;99.90
62007;DHT22;47963;53.008;6.754;2023-01-04T04:23:55;9.50;99.90
62007;DHT22;47963;53.008;6.754;2023-01-04T04:26:21;9.60;99.90
62007;DHT22;47963;53.008;6.754;2023-01-04T04:28:48;9.70;99.90
62007;DHT22;47963;53.008;6.754;2023-01-04T04:31:13;9.70;99.90
62007;DHT22;47963;53.008;6.754;2023-01-04T04:33:39;9.60;99.90
62007;DHT22;47963;53.008;6.754;2023-01-04T04:36:05;9.70;99.90
62007;DHT22;47963;53.008;6.754;2023-01-04T04:38:31;9.80;99.90
62007;DHT22;47963;53.008;6.754;2023-01-04T04:40:57;9.80;99.90
62007;DHT22;47963;53.008;6.754;2023-01-04T04:43:41;9.80;99.90
62007;DHT22;47963;53.008;6.754;2023-01-04T04:46:07;9.80;99.90
62007;DHT22;47963;53.008;6.754;2023-01-04T04:48:32;9.90;99.90
62007;DHT22;47963;53.008;6.754;2023-01-04T04:50:58;9.90;99.90
62007;DHT22;47963;53.008;6.754;2023-01-04T04:53:24;10.00;99.90
62007;DHT22;47963;53.008;6.754;2023-01-04T04:55:51;10.10;99.90
62007;DHT22;47963;53.008;6.754;2023-01-04T04:58:17;10.10;99.90
62007;DHT22;47963;53.008;6.754;2023-01-04T05:00:43;10.10;99.90
62007;DHT22;47963;53.008;6.754;2023-01-04T05:03:08;10.00;99.90
62007;DHT22;47963;53.008;6.754;2023-01-04T05:05:34;10.10;99.90
62007;DHT22;47963;53.008;6.754;2023-01-04T05:07:59;10.20;99.90
62007;DHT22;47963;53.008;6.754;2023-01-04T05:10:25;10.10;99.90
62007;DHT22;47963;53.008;6.754;2023-01-04T05:12:51;10.20;99.90
62007;DHT22;47963;53.008;6.754;2023-01-04T05:15:31;10.20;99.90
62007;DHT22;47963;53.008;6.754;2023-01-04T05:17:57;10.30;99.90
62007;DHT22;47963;53.008;6.754;2023-01-04T05:20:23;10.40;99.90
62007;DHT22;47963;53.008;6.754;2023-01-04T05:22:49;10.40;99.90
62007;DHT22;47963;53.008;6.754;2023-01-04T05:25:14;10.40;99.90
62007;DHT22;47963;53.008;6.754;2023-01-04T05:27:40;10.50;99.90
62007;DHT22;47963;53.008;6.754;2023-01-04T05:30:06;10.50;99.90
62007;DHT22;47963;53.008;6.754;2023-01-04T05:32:50;10.50;99.90
62007;DHT22;47963;53.008;6.754;2023-01-04T05:35:16;10.60;99.90
62007;DHT22;47963;53.008;6.754;2023-01-04T05:37:42;10.60;99.90
62007;DHT22;47963;53.008;6.754;2023-01-04T05:40:08;10.70;99.90
62007;DHT22;47963;53.008;6.754;2023-01-04T05:42:34;10.60;99.90
62007;DHT22;47963;53.008;6.754;2023-01-04T05:45:00;10.60;99.90
62007;DHT22;47963;53.008;6.754;2023-01-04T05:47:27;10.70;99.90
62007;DHT22;47963;53.008;6.754;2023-01-04T05:49:52;10.60;99.90
62007;DHT22;47963;53.008;6.754;2023-01-04T05:52:19;10.60;99.90
62007;DHT22;47963;53.008;6.754;2023-01-04T05:54:45;10.70;99.90
62007;DHT22;47963;53.008;6.754;2023-01-04T05:57:10;10.70;99.90
62007;DHT22;47963;53.008;6.754;2023-01-04T05:59:36;10.70;99.90
62007;DHT22;47963;53.008;6.754;2023-01-04T06:02:03;10.70;99.90
62007;DHT22;47963;53.008;6.754;2023-01-04T06:04:29;10.80;99.90
62007;DHT22;47963;53.008;6.754;2023-01-04T06:06:54;10.70;99.90
62007;DHT22;47963;53.008;6.754;2023-01-04T06:09:20;10.80;99.90
62007;DHT22;47963;53.008;6.754;2023-01-04T06:11:46;10.70;99.90
62007;DHT22;47963;53.008;6.754;2023-01-04T06:14:11;10.70;99.90
62007;DHT22;47963;53.008;6.754;2023-01-04T06:16:37;10.70;99.90
62007;DHT22;47963;53.008;6.754;2023-01-04T06:19:03;10.80;99.90
62007;DHT22;47963;53.008;6.754;2023-01-04T06:21:29;10.70;99.90
62007;DHT22;47963;53.008;6.754;2023-01-04T06:23:54;10.80;99.90
62007;DHT22;47963;53.008;6.754;2023-01-04T06:26:20;10.80;99.90
62007;DHT22;47963;53.008;6.754;2023-01-04T06:28:46;10.80;99.90
62007;DHT22;47963;53.008;6.754;2023-01-04T06:31:12;10.80;99.90
62007;DHT22;47963;53.008;6.754;2023-01-04T06:33:38;10.90;99.90
62007;DHT22;47963;53.008;6.754;2023-01-04T06:36:05;10.90;99.90
62007;DHT22;47963;53.008;6.754;2023-01-04T06:38:32;10.90;99.90
62007;DHT22;47963;53.008;6.754;2023-01-04T06:40:57;10.90;99.90
62007;DHT22;47963;53.008;6.754;2023-01-04T06:43:23;10.90;99.90
62007;DHT22;47963;53.008;6.754;2023-01-04T06:45:49;11.00;99.90
62007;DHT22;47963;53.008;6.754;2023-01-04T06:48:15;11.00;99.90
62007;DHT22;47963;53.008;6.754;2023-01-04T06:50:41;10.90;99.90
62007;DHT22;47963;53.008;6.754;2023-01-04T06:53:07;11.00;99.90
62007;DHT22;47963;53.008;6.754;2023-01-04T06:55:32;10.90;99.90
62007;DHT22;47963;53.008;6.754;2023-01-04T06:57:58;11.00;99.90
62007;DHT22;47963;53.008;6.754;2023-01-04T07:00:24;11.00;99.90
62007;DHT22;47963;53.008;6.754;2023-01-04T07:02:50;11.00;99.90
62007;DHT22;47963;53.008;6.754;2023-01-04T07:05:16;10.90;99.90
62007;DHT22;47963;53.008;6.754;2023-01-04T07:07:41;11.00;99.90
62007;DHT22;47963;53.008;6.754;2023-01-04T07:10:08;11.10;99.90
62007;DHT22;47963;53.008;6.754;2023-01-04T07:12:34;11.00;99.90
62007;DHT22;47963;53.008;6.754;2023-01-04T07:14:59;11.00;99.90
62007;DHT22;47963;53.008;6.754;2023-01-04T07:17:25;11.00;99.90
62007;DHT22;47963;53.008;6.754;2023-01-04T07:19:51;11.00;99.90
62007;DHT22;47963;53.008;6.754;2023-01-04T07:22:17;11.10;99.90
62007;DHT22;47963;53.008;6.754;2023-01-04T07:24:43;11.00;99.90
62007;DHT22;47963;53.008;6.754;2023-01-04T07:27:09;11.00;99.90
62007;DHT22;47963;53.008;6.754;2023-01-04T07:29:35;11.00;99.90
62007;DHT22;47963;53.008;6.754;2023-01-04T07:32:01;11.10;99.90
62007;DHT22;47963;53.008;6.754;2023-01-04T07:34:27;11.10;99.90
62007;DHT22;47963;53.008;6.754;2023-01-04T07:36:54;11.10;99.90
62007;DHT22;47963;53.008;6.754;2023-01-04T07:39:20;11.20;99.90
62007;DHT22;47963;53.008;6.754;2023-01-04T07:41:47;11.10;99.90
62007;DHT22;47963;53.008;6.754;2023-01-04T07:44:14;11.00;99.90
62007;DHT22;47963;53.008;6.754;2023-01-04T07:46:40;11.10;99.90
62007;DHT22;47963;53.008;6.754;2023-01-04T07:49:10;11.10;99.90
62007;DHT22;47963;53.008;6.754;2023-01-04T07:51:36;11.10;99.90
62007;DHT22;47963;53.008;6.754;2023-01-04T07:54:02;11.10;99.90
62007;DHT22;47963;53.008;6.754;2023-01-04T07:56:27;11.20;99.90
62007;DHT22;47963;53.008;6.754;2023-01-04T07:58:53;11.20;99.90
62007;DHT22;47963;53.008;6.754;2023-01-04T08:01:25;11.10;99.90
62007;DHT22;47963;53.008;6.754;2023-01-04T08:03:51;11.20;99.90
62007;DHT22;47963;53.008;6.754;2023-01-04T08:06:18;11.20;99.90
62007;DHT22;47963;53.008;6.754;2023-01-04T08:08:44;11.20;99.90
62007;DHT22;47963;53.008;6.754;2023-01-04T08:11:12;11.20;99.90
62007;DHT22;47963;53.008;6.754;2023-01-04T08:13:39;11.10;99.90
62007;DHT22;47963;53.008;6.754;2023-01-04T08:16:06;11.20;99.90
62007;DHT22;47963;53.008;6.754;2023-01-04T08:18:32;11.10;99.90
62007;DHT22;47963;53.008;6.754;2023-01-04T08:23:28;11.10;99.90
62007;DHT22;47963;53.008;6.754;2023-01-04T08:25:53;11.20;99.90
62007;DHT22;47963;53.008;6.754;2023-01-04T08:28:19;11.10;99.90
62007;DHT22;47963;53.008;6.754;2023-01-04T08:30:45;11.20;99.90
62007;DHT22;47963;53.008;6.754;2023-01-04T08:33:14;11.20;99.90
62007;DHT22;47963;53.008;6.754;2023-01-04T08:35:40;11.30;99.90
62007;DHT22;47963;53.008;6.754;2023-01-04T08:38:06;11.30;99.90
62007;DHT22;47963;53.008;6.754;2023-01-04T08:40:31;11.30;99.90
62007;DHT22;47963;53.008;6.754;2023-01-04T08:42:57;11.30;99.90
62007;DHT22;47963;53.008;6.754;2023-01-04T08:45:22;11.20;99.90
62007;DHT22;47963;53.008;6.754;2023-01-04T08:47:48;11.30;99.90
62007;DHT22;47963;53.008;6.754;2023-01-04T08:50:14;11.20;99.90
62007;DHT22;47963;53.008;6.754;2023-01-04T08:52:41;11.20;99.90
62007;DHT22;47963;53.008;6.754;2023-01-04T08:55:07;11.20;99.90
62007;DHT22;47963;53.008;6.754;2023-01-04T08:57:33;11.40;99.90
62007;DHT22;47963;53.008;6.754;2023-01-04T09:00:00;11.30;99.90
62007;DHT22;47963;53.008;6.754;2023-01-04T09:02:26;11.30;99.90
62007;DHT22;47963;53.008;6.754;2023-01-04T09:04:53;11.40;99.90
62007;DHT22;47963;53.008;6.754;2023-01-04T09:07:27;11.30;99.90
62007;DHT22;47963;53.008;6.754;2023-01-04T09:09:53;11.40;99.90
62007;DHT22;47963;53.008;6.754;2023-01-04T09:12:18;11.30;99.90
62007;DHT22;47963;53.008;6.754;2023-01-04T09:14:44;11.40;99.90
62007;DHT22;47963;53.008;6.754;2023-01-04T09:17:10;11.40;99.90
62007;DHT22;47963;53.008;6.754;2023-01-04T09:19:35;11.30;99.90
62007;DHT22;47963;53.008;6.754;2023-01-04T09:22:01;11.40;99.90
62007;DHT22;47963;53.008;6.754;2023-01-04T09:24:26;11.40;99.90
62007;DHT22;47963;53.008;6.754;2023-01-04T09:26:52;11.30;99.90
62007;DHT22;47963;53.008;6.754;2023-01-04T09:29:18;11.30;99.90
62007;DHT22;47963;53.008;6.754;2023-01-04T09:31:44;11.30;99.90
62007;DHT22;47963;53.008;6.754;2023-01-04T09:34:10;11.30;99.90
62007;DHT22;47963;53.008;6.754;2023-01-04T09:36:36;11.40;99.90
62007;DHT22;47963;53.008;6.754;2023-01-04T09:39:02;11.40;99.90
62007;DHT22;47963;53.008;6.754;2023-01-04T09:41:30;11.40;99.90
62007;DHT22;47963;53.008;6.754;2023-01-04T09:44:01;11.40;99.90
62007;DHT22;47963;53.008;6.754;2023-01-04T09:49:17;11.30;99.90
62007;DHT22;47963;53.008;6.754;2023-01-04T09:52:14;11.40;99.90
62007;DHT22;47963;53.008;6.754;2023-01-04T09:54:47;11.40;99.90
62007;DHT22;47963;53.008;6.754;2023-01-04T09:57:23;11.40;99.90
62007;DHT22;47963;53.008;6.754;2023-01-04T09:59:55;11.40;99.90
62007;DHT22;47963;53.008;6.754;2023-01-04T10:02:28;11.40;99.90
62007;DHT22;47963;53.008;6.754;2023-01-04T10:04:57;11.40;99.90
62007;DHT22;47963;53.008;6.754;2023-01-04T10:07:31;11.30;99.90
62007;DHT22;47963;53.008;6.754;2023-01-04T10:09:58;11.50;99.90
62007;DHT22;47963;53.008;6.754;2023-01-04T10:18:19;11.60;99.90
62007;DHT22;47963;53.008;6.754;2023-01-04T10:21:10;11.60;99.90
62007;DHT22;47963;53.008;6.754;2023-01-04T10:23:41;11.50;99.90
62007;DHT22;47963;53.008;6.754;2023-01-04T10:26:13;11.60;99.90
62007;DHT22;47963;53.008;6.754;2023-01-04T10:31:39;11.80;99.90
62007;DHT22;47963;53.008;6.754;2023-01-04T10:34:22;11.90;99.90
62007;DHT22;47963;53.008;6.754;2023-01-04T10:36:48;11.90;99.90
62007;DHT22;47963;53.008;6.754;2023-01-04T10:39:18;11.90;99.90
62007;DHT22;47963;53.008;6.754;2023-01-04T10:41:56;12.00;99.90
62007;DHT22;47963;53.008;6.754;2023-01-04T10:47:43;11.90;99.90
62007;DHT22;47963;53.008;6.754;2023-01-04T10:50:23;12.00;99.90
62007;DHT22;47963;53.008;6.754;2023-01-04T10:52:51;12.00;99.90
62007;DHT22;47963;53.008;6.754;2023-01-04T10:55:30;12.10;99.90
62007;DHT22;47963;53.008;6.754;2023-01-04T10:58:13;12.00;99.90
62007;DHT22;47963;53.008;6.754;2023-01-04T11:00:49;12.00;99.90
62007;DHT22;47963;53.008;6.754;2023-01-04T11:03:48;12.10;99.90
62007;DHT22;47963;53.008;6.754;2023-01-04T11:06:20;12.10;99.90
62007;DHT22;47963;53.008;6.754;2023-01-04T11:09:01;12.00;99.90
62007;DHT22;47963;53.008;6.754;2023-01-04T11:11:35;12.20;99.90
62007;DHT22;47963;53.008;6.754;2023-01-04T11:14:02;12.10;99.90
62007;DHT22;47963;53.008;6.754;2023-01-04T11:16:28;12.10;99.90
62007;DHT22;47963;53.008;6.754;2023-01-04T11:18:54;12.20;99.90
62007;DHT22;47963;53.008;6.754;2023-01-04T11:21:24;12.20;99.90
62007;DHT22;47963;53.008;6.754;2023-01-04T11:23:50;12.10;99.90
62007;DHT22;47963;53.008;6.754;2023-01-04T11:26:23;12.30;99.90
62007;DHT22;47963;53.008;6.754;2023-01-04T11:35:04;12.10;99.90
62007;DHT22;47963;53.008;6.754;2023-01-04T11:37:32;12.20;99.90
62007;DHT22;47963;53.008;6.754;2023-01-04T11:42:36;12.20;99.90
62007;DHT22;47963;53.008;6.754;2023-01-04T11:45:01;12.10;99.90
62007;DHT22;47963;53.008;6.754;2023-01-04T11:47:27;12.10;99.90
62007;DHT22;47963;53.008;6.754;2023-01-04T11:49:53;12.20;99.90
62007;DHT22;47963;53.008;6.754;2023-01-04T11:52:36;12.20;99.90
62007;DHT22;47963;53.008;6.754;2023-01-04T11:57:40;12.30;99.90
62007;DHT22;47963;53.008;6.754;2023-01-04T12:00:07;12.30;99.90
62007;DHT22;47963;53.008;6.754;2023-01-04T12:02:33;12.20;99.90
62007;DHT22;47963;53.008;6.754;2023-01-04T12:04:59;12.30;99.90
62007;DHT22;47963;53.008;6.754;2023-01-04T12:07:34;12.30;99.90
62007;DHT22;47963;53.008;6.754;2023-01-04T12:10:11;12.20;99.90
62007;DHT22;47963;53.008;6.754;2023-01-04T12:12:42;12.30;99.90
62007;DHT22;47963;53.008;6.754;2023-01-04T12:15:16;12.30;99.90
62007;DHT22;47963;53.008;6.754;2023-01-04T12:17:55;12.40;99.90
62007;DHT22;47963;53.008;6.754;2023-01-04T12:20:27;12.30;99.90
62007;DHT22;47963;53.008;6.754;2023-01-04T12:22:53;12.30;99.90
62007;DHT22;47963;53.008;6.754;2023-01-04T12:27:52;12.40;99.90
62007;DHT22;47963;53.008;6.754;2023-01-04T12:30:33;12.40;99.90
62007;DHT22;47963;53.008;6.754;2023-01-04T12:32:59;12.40;99.90
62007;DHT22;47963;53.008;6.754;2023-01-04T12:35:59;12.40;99.90
62007;DHT22;47963;53.008;6.754;2023-01-04T12:41:20;12.40;99.90
62007;DHT22;47963;53.008;6.754;2023-01-04T12:43:46;12.40;99.90
62007;DHT22;47963;53.008;6.754;2023-01-04T12:46:43;12.40;99.90
62007;DHT22;47963;53.008;6.754;2023-01-04T12:54:54;12.40;99.90
62007;DHT22;47963;53.008;6.754;2023-01-04T13:00:05;12.40;99.90
62007;DHT22;47963;53.008;6.754;2023-01-04T13:05:01;12.30;99.90
62007;DHT22;47963;53.008;6.754;2023-01-04T13:07:36;12.30;99.90
62007;DHT22;47963;53.008;6.754;2023-01-04T13:13:02;12.30;99.90
62007;DHT22;47963;53.008;6.754;2023-01-04T13:15:37;12.30;99.90
62007;DHT22;47963;53.008;6.754;2023-01-04T13:23:57;12.30;99.90
62007;DHT22;47963;53.008;6.754;2023-01-04T13:26:41;12.30;99.90
62007;DHT22;47963;53.008;6.754;2023-01-04T13:36:54;12.30;99.90
62007;DHT22;47963;53.008;6.754;2023-01-04T13:39:21;12.20;99.90
62007;DHT22;47963;53.008;6.754;2023-01-04T13:41:47;12.20;99.90
62007;DHT22;47963;53.008;6.754;2023-01-04T13:44:21;12.20;99.90
62007;DHT22;47963;53.008;6.754;2023-01-04T13:46:51;12.20;99.90
62007;DHT22;47963;53.008;6.754;2023-01-04T13:49:19;12.20;99.90
62007;DHT22;47963;53.008;6.754;2023-01-04T13:51:45;12.20;99.90
62007;DHT22;47963;53.008;6.754;2023-01-04T13:54:22;12.30;99.90
62007;DHT22;47963;53.008;6.754;2023-01-04T13:56:48;12.20;99.90
62007;DHT22;47963;53.008;6.754;2023-01-04T13:59:17;12.20;99.90
62007;DHT22;47963;53.008;6.754;2023-01-04T14:01:46;12.20;99.90
62007;DHT22;47963;53.008;6.754;2023-01-04T14:04:26;12.20;99.90
62007;DHT22;47963;53.008;6.754;2023-01-04T14:06:53;12.20;99.90
62007;DHT22;47963;53.008;6.754;2023-01-04T14:09:25;12.20;99.90
62007;DHT22;47963;53.008;6.754;2023-01-04T14:11:55;12.10;99.90
62007;DHT22;47963;53.008;6.754;2023-01-04T14:14:44;12.00;99.90
62007;DHT22;47963;53.008;6.754;2023-01-04T14:24:59;11.90;99.90
62007;DHT22;47963;53.008;6.754;2023-01-04T14:27:43;12.00;99.90
62007;DHT22;47963;53.008;6.754;2023-01-04T14:36:03;12.00;99.90
62007;DHT22;47963;53.008;6.754;2023-01-04T14:41:11;11.90;99.90
62007;DHT22;47963;53.008;6.754;2023-01-04T14:43:52;12.00;99.90
62007;DHT22;47963;53.008;6.754;2023-01-04T14:46:19;11.90;99.90
62007;DHT22;47963;53.008;6.754;2023-01-04T14:48:45;11.90;99.90
62007;DHT22;47963;53.008;6.754;2023-01-04T14:51:19;11.90;99.90
62007;DHT22;47963;53.008;6.754;2023-01-04T14:53:46;11.90;99.90
62007;DHT22;47963;53.008;6.754;2023-01-04T14:56:15;11.80;99.90
62007;DHT22;47963;53.008;6.754;2023-01-04T14:58:41;11.90;99.90
62007;DHT22;47963;53.008;6.754;2023-01-04T15:01:08;11.80;99.90
62007;DHT22;47963;53.008;6.754;2023-01-04T15:03:34;11.80;99.90
62007;DHT22;47963;53.008;6.754;2023-01-04T15:06:00;11.80;99.90
62007;DHT22;47963;53.008;6.754;2023-01-04T15:08:25;11.70;99.90
62007;DHT22;47963;53.008;6.754;2023-01-04T15:10:51;11.80;99.90
62007;DHT22;47963;53.008;6.754;2023-01-04T15:13:17;11.80;99.90
62007;DHT22;47963;53.008;6.754;2023-01-04T15:15:42;11.80;99.90
62007;DHT22;47963;53.008;6.754;2023-01-04T15:18:08;11.80;99.90
62007;DHT22;47963;53.008;6.754;2023-01-04T15:20:36;11.80;99.90
62007;DHT22;47963;53.008;6.754;2023-01-04T15:23:02;11.80;99.90
62007;DHT22;47963;53.008;6.754;2023-01-04T15:25:28;11.80;99.90
62007;DHT22;47963;53.008;6.754;2023-01-04T15:27:54;11.80;99.90
62007;DHT22;47963;53.008;6.754;2023-01-04T15:30:20;11.80;99.90
62007;DHT22;47963;53.008;6.754;2023-01-04T15:32:45;11.80;99.90
62007;DHT22;47963;53.008;6.754;2023-01-04T15:35:11;11.70;99.90
62007;DHT22;47963;53.008;6.754;2023-01-04T15:37:41;11.80;99.90
62007;DHT22;47963;53.008;6.754;2023-01-04T15:40:08;11.80;99.90
62007;DHT22;47963;53.008;6.754;2023-01-04T15:42:33;11.90;99.90
62007;DHT22;47963;53.008;6.754;2023-01-04T15:45:18;11.80;99.90
62007;DHT22;47963;53.008;6.754;2023-01-04T15:47:45;11.80;99.90
62007;DHT22;47963;53.008;6.754;2023-01-04T15:50:11;11.80;99.90
62007;DHT22;47963;53.008;6.754;2023-01-04T15:52:36;11.80;99.90
62007;DHT22;47963;53.008;6.754;2023-01-04T15:55:02;11.80;99.90
62007;DHT22;47963;53.008;6.754;2023-01-04T15:57:28;11.90;99.90
62007;DHT22;47963;53.008;6.754;2023-01-04T15:59:53;11.80;99.90
62007;DHT22;47963;53.008;6.754;2023-01-04T16:02:19;11.80;99.90
62007;DHT22;47963;53.008;6.754;2023-01-04T16:04:44;11.80;99.90
62007;DHT22;47963;53.008;6.754;2023-01-04T16:07:11;11.70;99.90
62007;DHT22;47963;53.008;6.754;2023-01-04T16:09:37;11.70;99.90
62007;DHT22;47963;53.008;6.754;2023-01-04T16:12:03;11.70;99.90
62007;DHT22;47963;53.008;6.754;2023-01-04T16:14:48;11.70;99.90
62007;DHT22;47963;53.008;6.754;2023-01-04T16:17:13;11.70;99.90
62007;DHT22;47963;53.008;6.754;2023-01-04T16:19:39;11.70;99.90
62007;DHT22;47963;53.008;6.754;2023-01-04T16:22:04;11.80;99.90
62007;DHT22;47963;53.008;6.754;2023-01-04T16:24:30;11.80;99.90
62007;DHT22;47963;53.008;6.754;2023-01-04T16:26:56;11.80;99.90
62007;DHT22;47963;53.008;6.754;2023-01-04T16:29:21;11.90;99.90
62007;DHT22;47963;53.008;6.754;2023-01-04T16:31:49;11.80;99.90
62007;DHT22;47963;53.008;6.754;2023-01-04T16:34:15;11.80;99.90
62007;DHT22;47963;53.008;6.754;2023-01-04T16:36:40;11.90;99.90
62007;DHT22;47963;53.008;6.754;2023-01-04T16:39:07;11.90;99.90
62007;DHT22;47963;53.008;6.754;2023-01-04T16:41:33;11.80;99.90
62007;DHT22;47963;53.008;6.754;2023-01-04T16:43:59;11.90;99.90
62007;DHT22;47963;53.008;6.754;2023-01-04T16:46:29;11.90;99.90
62007;DHT22;47963;53.008;6.754;2023-01-04T16:48:57;11.90;99.90
62007;DHT22;47963;53.008;6.754;2023-01-04T16:51:25;11.90;99.90
62007;DHT22;47963;53.008;6.754;2023-01-04T16:53:51;11.90;99.90
62007;DHT22;47963;53.008;6.754;2023-01-04T16:56:19;11.80;99.90
62007;DHT22;47963;53.008;6.754;2023-01-04T16:58:45;11.80;99.90
62007;DHT22;47963;53.008;6.754;2023-01-04T17:01:20;11.80;99.90
62007;DHT22;47963;53.008;6.754;2023-01-04T17:03:47;11.70;99.90
62007;DHT22;47963;53.008;6.754;2023-01-04T17:06:21;11.70;99.90
62007;DHT22;47963;53.008;6.754;2023-01-04T17:08:50;11.60;99.90
62007;DHT22;47963;53.008;6.754;2023-01-04T17:11:24;11.50;99.90
62007;DHT22;47963;53.008;6.754;2023-01-04T17:13:51;11.50;99.90
62007;DHT22;47963;53.008;6.754;2023-01-04T17:16:16;11.50;99.90
62007;DHT22;47963;53.008;6.754;2023-01-04T17:18:43;11.60;99.90
62007;DHT22;47963;53.008;6.754;2023-01-04T17:21:13;11.60;99.90
62007;DHT22;47963;53.008;6.754;2023-01-04T17:23:41;11.60;99.90
62007;DHT22;47963;53.008;6.754;2023-01-04T17:26:13;11.50;99.90
62007;DHT22;47963;53.008;6.754;2023-01-04T17:28:40;11.50;99.90
62007;DHT22;47963;53.008;6.754;2023-01-04T17:31:27;11.50;99.90
62007;DHT22;47963;53.008;6.754;2023-01-04T17:33:53;11.50;99.90
62007;DHT22;47963;53.008;6.754;2023-01-04T17:36:20;11.60;99.90
62007;DHT22;47963;53.008;6.754;2023-01-04T17:38:46;11.60;99.90